sensor_id;sensor_type;location;lat;lon;timestamp;P1;durP1;ratioP1;P2;durP2;ratioP2
70169;SDS011;57543;45.442;9.212;2023-11-19T00:02:39;22.17;;;13.00;;
70169;SDS011;57543;45.442;9.212;2023-11-19T00:05:43;21.70;;;12.87;;
70169;SDS011;57543;45.442;9.212;2023-11-19T00:08:47;22.90;;;13.70;;
70169;SDS011;57543;45.442;9.212;2023-11-19T00:11:51;22.45;;;13.25;;
70169;SDS011;57543;45.442;9.212;2023-11-19T00:14:55;23.10;;;12.80;;
70169;SDS011;57543;45.442;9.212;2023-11-19T00:18:02;20.92;;;12.15;;
70169;SDS011;57543;45.442;9.212;2023-11-19T00:21:08;22.20;;;12.80;;
70169;SDS011;57543;45.442;9.212;2023-11-19T00:24:13;20.13;;;12.52;;
70169;SDS011;57543;45.442;9.212;2023-11-19T00:27:19;23.27;;;13.35;;
70169;SDS011;57543;45.442;9.212;2023-11-19T00:30:24;21.17;;;12.93;;
70169;SDS011;57543;45.442;9.212;2023-11-19T00:33:27;22.98;;;13.02;;
70169;SDS011;57543;45.442;9.212;2023-11-19T00:36:30;21.03;;;12.90;;
70169;SDS011;57543;45.442;9.212;2023-11-19T00:39:33;22.73;;;13.02;;
70169;SDS011;57543;45.442;9.212;2023-11-19T00:42:37;21.50;;;13.55;;
70169;SDS011;57543;45.442;9.212;2023-11-19T00:45:41;26.05;;;14.10;;
70169;SDS011;57543;45.442;9.212;2023-11-19T00:48:46;24.65;;;13.63;;
70169;SDS011;57543;45.442;9.212;2023-11-19T00:51:51;20.17;;;13.10;;
70169;SDS011;57543;45.442;9.212;2023-11-19T00:54:54;19.75;;;13.32;;
70169;SDS011;57543;45.442;9.212;2023-11-19T00:57:57;19.73;;;12.63;;
70169;SDS011;57543;45.442;9.212;2023-11-19T01:01:01;21.73;;;12.75;;
70169;SDS011;57543;45.442;9.212;2023-11-19T01:04:07;21.90;;;13.18;;
70169;SDS011;57543;45.442;9.212;2023-11-19T01:07:11;19.67;;;12.70;;
70169;SDS011;57543;45.442;9.212;2023-11-19T01:10:18;22.25;;;13.45;;
70169;SDS011;57543;45.442;9.212;2023-11-19T01:13:25;26.35;;;14.95;;
70169;SDS011;57543;45.442;9.212;2023-11-19T01:16:31;23.80;;;14.15;;
70169;SDS011;57543;45.442;9.212;2023-11-19T01:19:35;22.08;;;13.35;;
70169;SDS011;57543;45.442;9.212;2023-11-19T01:22:38;19.70;;;13.00;;
70169;SDS011;57543;45.442;9.212;2023-11-19T01:25:43;21.73;;;13.30;;
70169;SDS011;57543;45.442;9.212;2023-11-19T01:28:47;23.13;;;13.70;;
70169;SDS011;57543;45.442;9.212;2023-11-19T01:31:52;24.35;;;14.05;;
70169;SDS011;57543;45.442;9.212;2023-11-19T01:34:57;21.67;;;13.00;;
70169;SDS011;57543;45.442;9.212;2023-11-19T01:38:01;22.80;;;13.60;;
70169;SDS011;57543;45.442;9.212;2023-11-19T01:41:04;22.95;;;13.52;;
70169;SDS011;57543;45.442;9.212;2023-11-19T01:44:08;19.85;;;12.82;;
70169;SDS011;57543;45.442;9.212;2023-11-19T01:47:12;22.42;;;13.27;;
70169;SDS011;57543;45.442;9.212;2023-11-19T01:50:17;20.20;;;12.88;;
70169;SDS011;57543;45.442;9.212;2023-11-19T01:56:45;22.25;;;13.77;;
70169;SDS011;57543;45.442;9.212;2023-11-19T01:59:50;21.70;;;13.38;;
70169;SDS011;57543;45.442;9.212;2023-11-19T02:02:54;21.77;;;13.40;;
70169;SDS011;57543;45.442;9.212;2023-11-19T02:05:59;22.42;;;14.02;;
70169;SDS011;57543;45.442;9.212;2023-11-19T02:09:03;21.20;;;13.60;;
70169;SDS011;57543;45.442;9.212;2023-11-19T02:12:13;22.75;;;13.60;;
70169;SDS011;57543;45.442;9.212;2023-11-19T02:15:17;23.70;;;13.45;;
70169;SDS011;57543;45.442;9.212;2023-11-19T02:18:26;21.95;;;13.05;;
70169;SDS011;57543;45.442;9.212;2023-11-19T02:21:31;21.98;;;13.00;;
70169;SDS011;57543;45.442;9.212;2023-11-19T02:24:35;23.07;;;13.40;;
70169;SDS011;57543;45.442;9.212;2023-11-19T02:27:45;20.20;;;13.77;;
70169;SDS011;57543;45.442;9.212;2023-11-19T02:31:03;21.05;;;13.05;;
70169;SDS011;57543;45.442;9.212;2023-11-19T02:34:09;21.67;;;13.15;;
70169;SDS011;57543;45.442;9.212;2023-11-19T02:37:15;21.67;;;14.32;;
70169;SDS011;57543;45.442;9.212;2023-11-19T02:40:22;22.73;;;13.50;;
70169;SDS011;57543;45.442;9.212;2023-11-19T02:43:27;21.10;;;13.10;;
70169;SDS011;57543;45.442;9.212;2023-11-19T02:46:31;23.65;;;12.88;;
70169;SDS011;57543;45.442;9.212;2023-11-19T02:49:36;21.58;;;12.55;;
70169;SDS011;57543;45.442;9.212;2023-11-19T02:52:41;20.83;;;13.20;;
70169;SDS011;57543;45.442;9.212;2023-11-19T02:55:45;25.10;;;13.63;;
70169;SDS011;57543;45.442;9.212;2023-11-19T02:58:53;20.42;;;11.98;;
70169;SDS011;57543;45.442;9.212;2023-11-19T03:01:57;22.27;;;13.80;;
70169;SDS011;57543;45.442;9.212;2023-11-19T03:05:02;21.15;;;13.43;;
70169;SDS011;57543;45.442;9.212;2023-11-19T03:08:10;24.45;;;14.23;;
70169;SDS011;57543;45.442;9.212;2023-11-19T03:11:14;21.67;;;13.43;;
70169;SDS011;57543;45.442;9.212;2023-11-19T03:14:18;21.40;;;14.32;;
70169;SDS011;57543;45.442;9.212;2023-11-19T03:17:25;22.60;;;13.82;;
70169;SDS011;57543;45.442;9.212;2023-11-19T03:20:30;24.90;;;13.80;;
70169;SDS011;57543;45.442;9.212;2023-11-19T03:23:34;24.88;;;14.60;;
70169;SDS011;57543;45.442;9.212;2023-11-19T03:26:38;21.57;;;13.70;;
70169;SDS011;57543;45.442;9.212;2023-11-19T03:29:42;25.65;;;15.32;;
70169;SDS011;57543;45.442;9.212;2023-11-19T03:32:50;25.40;;;16.15;;
70169;SDS011;57543;45.442;9.212;2023-11-19T03:35:54;28.45;;;16.10;;
70169;SDS011;57543;45.442;9.212;2023-11-19T03:39:00;25.25;;;14.40;;
70169;SDS011;57543;45.442;9.212;2023-11-19T03:42:06;22.43;;;13.00;;
70169;SDS011;57543;45.442;9.212;2023-11-19T03:45:09;21.67;;;13.45;;
70169;SDS011;57543;45.442;9.212;2023-11-19T03:48:13;22.77;;;14.23;;
70169;SDS011;57543;45.442;9.212;2023-11-19T03:51:19;23.17;;;14.75;;
70169;SDS011;57543;45.442;9.212;2023-11-19T03:54:25;23.33;;;15.18;;
70169;SDS011;57543;45.442;9.212;2023-11-19T03:57:31;25.20;;;15.23;;
70169;SDS011;57543;45.442;9.212;2023-11-19T04:00:35;25.58;;;14.60;;
70169;SDS011;57543;45.442;9.212;2023-11-19T04:03:39;25.42;;;14.68;;
70169;SDS011;57543;45.442;9.212;2023-11-19T04:06:42;24.90;;;14.13;;
70169;SDS011;57543;45.442;9.212;2023-11-19T04:09:46;26.40;;;14.63;;
70169;SDS011;57543;45.442;9.212;2023-11-19T04:12:50;26.07;;;14.53;;
70169;SDS011;57543;45.442;9.212;2023-11-19T04:15:56;25.10;;;14.13;;
70169;SDS011;57543;45.442;9.212;2023-11-19T04:19:02;25.48;;;15.07;;
70169;SDS011;57543;45.442;9.212;2023-11-19T04:22:09;24.30;;;15.02;;
70169;SDS011;57543;45.442;9.212;2023-11-19T04:25:13;24.48;;;14.18;;
70169;SDS011;57543;45.442;9.212;2023-11-19T04:28:17;23.53;;;13.63;;
70169;SDS011;57543;45.442;9.212;2023-11-19T04:31:28;23.13;;;14.25;;
70169;SDS011;57543;45.442;9.212;2023-11-19T04:34:37;25.15;;;14.80;;
70169;SDS011;57543;45.442;9.212;2023-11-19T04:37:41;22.70;;;13.93;;
70169;SDS011;57543;45.442;9.212;2023-11-19T04:40:48;23.20;;;14.30;;
70169;SDS011;57543;45.442;9.212;2023-11-19T04:43:51;22.13;;;14.70;;
70169;SDS011;57543;45.442;9.212;2023-11-19T04:46:57;23.92;;;14.32;;
70169;SDS011;57543;45.442;9.212;2023-11-19T04:50:02;22.40;;;13.90;;
70169;SDS011;57543;45.442;9.212;2023-11-19T04:53:10;22.00;;;14.15;;
70169;SDS011;57543;45.442;9.212;2023-11-19T04:56:17;23.98;;;14.07;;
70169;SDS011;57543;45.442;9.212;2023-11-19T04:59:23;23.90;;;13.97;;
70169;SDS011;57543;45.442;9.212;2023-11-19T05:02:26;23.20;;;13.73;;
70169;SDS011;57543;45.442;9.212;2023-11-19T05:05:30;23.15;;;14.00;;
70169;SDS011;57543;45.442;9.212;2023-11-19T05:08:35;23.55;;;13.70;;
70169;SDS011;57543;45.442;9.212;2023-11-19T05:11:39;22.67;;;14.05;;
70169;SDS011;57543;45.442;9.212;2023-11-19T05:14:43;24.37;;;14.27;;
70169;SDS011;57543;45.442;9.212;2023-11-19T05:17:52;20.77;;;13.35;;
70169;SDS011;57543;45.442;9.212;2023-11-19T05:20:56;21.92;;;13.75;;
70169;SDS011;57543;45.442;9.212;2023-11-19T05:24:00;22.77;;;13.70;;
70169;SDS011;57543;45.442;9.212;2023-11-19T05:27:03;22.55;;;14.20;;
70169;SDS011;57543;45.442;9.212;2023-11-19T05:30:07;26.93;;;14.70;;
70169;SDS011;57543;45.442;9.212;2023-11-19T05:33:12;22.13;;;14.75;;
70169;SDS011;57543;45.442;9.212;2023-11-19T05:36:16;22.35;;;13.63;;
70169;SDS011;57543;45.442;9.212;2023-11-19T05:39:20;22.40;;;13.93;;
70169;SDS011;57543;45.442;9.212;2023-11-19T05:42:24;24.30;;;13.95;;
70169;SDS011;57543;45.442;9.212;2023-11-19T05:45:27;22.73;;;13.97;;
70169;SDS011;57543;45.442;9.212;2023-11-19T05:48:31;22.63;;;14.23;;
70169;SDS011;57543;45.442;9.212;2023-11-19T05:51:37;22.23;;;13.45;;
70169;SDS011;57543;45.442;9.212;2023-11-19T05:54:42;22.42;;;14.10;;
70169;SDS011;57543;45.442;9.212;2023-11-19T05:57:45;22.60;;;13.13;;
70169;SDS011;57543;45.442;9.212;2023-11-19T06:00:51;22.97;;;13.03;;
70169;SDS011;57543;45.442;9.212;2023-11-19T06:03:55;24.77;;;13.70;;
70169;SDS011;57543;45.442;9.212;2023-11-19T06:06:59;21.92;;;13.15;;
70169;SDS011;57543;45.442;9.212;2023-11-19T06:10:03;22.10;;;13.75;;
70169;SDS011;57543;45.442;9.212;2023-11-19T06:13:09;22.67;;;14.32;;
70169;SDS011;57543;45.442;9.212;2023-11-19T06:16:14;24.00;;;14.43;;
70169;SDS011;57543;45.442;9.212;2023-11-19T06:19:18;20.88;;;13.60;;
70169;SDS011;57543;45.442;9.212;2023-11-19T06:22:22;23.67;;;14.43;;
70169;SDS011;57543;45.442;9.212;2023-11-19T06:25:26;22.40;;;13.95;;
70169;SDS011;57543;45.442;9.212;2023-11-19T06:28:29;21.67;;;14.18;;
70169;SDS011;57543;45.442;9.212;2023-11-19T06:31:33;25.43;;;13.83;;
70169;SDS011;57543;45.442;9.212;2023-11-19T06:34:36;23.40;;;14.48;;
70169;SDS011;57543;45.442;9.212;2023-11-19T06:37:40;24.50;;;14.65;;
70169;SDS011;57543;45.442;9.212;2023-11-19T06:40:45;24.08;;;14.18;;
70169;SDS011;57543;45.442;9.212;2023-11-19T06:43:48;22.50;;;14.02;;
70169;SDS011;57543;45.442;9.212;2023-11-19T06:46:52;22.70;;;14.97;;
70169;SDS011;57543;45.442;9.212;2023-11-19T06:49:56;22.73;;;14.05;;
70169;SDS011;57543;45.442;9.212;2023-11-19T06:53:00;24.95;;;14.63;;
70169;SDS011;57543;45.442;9.212;2023-11-19T06:56:04;25.65;;;14.68;;
70169;SDS011;57543;45.442;9.212;2023-11-19T06:59:09;24.17;;;14.95;;
70169;SDS011;57543;45.442;9.212;2023-11-19T07:02:12;22.60;;;14.90;;
70169;SDS011;57543;45.442;9.212;2023-11-19T07:05:17;25.10;;;15.48;;
70169;SDS011;57543;45.442;9.212;2023-11-19T07:08:21;27.92;;;15.32;;
70169;SDS011;57543;45.442;9.212;2023-11-19T07:11:24;24.77;;;15.45;;
70169;SDS011;57543;45.442;9.212;2023-11-19T07:14:28;25.15;;;15.50;;
70169;SDS011;57543;45.442;9.212;2023-11-19T07:17:32;25.20;;;15.70;;
70169;SDS011;57543;45.442;9.212;2023-11-19T07:20:35;26.92;;;14.93;;
70169;SDS011;57543;45.442;9.212;2023-11-19T07:23:41;24.13;;;15.02;;
70169;SDS011;57543;45.442;9.212;2023-11-19T07:26:45;22.65;;;14.65;;
70169;SDS011;57543;45.442;9.212;2023-11-19T07:29:50;27.02;;;15.73;;
70169;SDS011;57543;45.442;9.212;2023-11-19T07:32:54;21.10;;;13.70;;
70169;SDS011;57543;45.442;9.212;2023-11-19T07:35:57;23.85;;;14.70;;
70169;SDS011;57543;45.442;9.212;2023-11-19T07:39:01;22.23;;;15.05;;
70169;SDS011;57543;45.442;9.212;2023-11-19T07:42:08;23.02;;;14.60;;
70169;SDS011;57543;45.442;9.212;2023-11-19T07:45:14;23.52;;;14.52;;
70169;SDS011;57543;45.442;9.212;2023-11-19T07:48:18;25.23;;;14.13;;
70169;SDS011;57543;45.442;9.212;2023-11-19T07:51:26;20.02;;;13.98;;
70169;SDS011;57543;45.442;9.212;2023-11-19T07:54:30;20.30;;;14.05;;
70169;SDS011;57543;45.442;9.212;2023-11-19T07:57:34;24.55;;;14.05;;
70169;SDS011;57543;45.442;9.212;2023-11-19T08:00:38;21.02;;;14.27;;
70169;SDS011;57543;45.442;9.212;2023-11-19T08:03:44;21.07;;;14.20;;
70169;SDS011;57543;45.442;9.212;2023-11-19T08:06:56;21.95;;;13.65;;
70169;SDS011;57543;45.442;9.212;2023-11-19T08:10:02;22.83;;;14.30;;
70169;SDS011;57543;45.442;9.212;2023-11-19T08:13:06;19.98;;;13.82;;
70169;SDS011;57543;45.442;9.212;2023-11-19T08:16:10;20.80;;;14.30;;
70169;SDS011;57543;45.442;9.212;2023-11-19T08:19:16;20.33;;;14.03;;
70169;SDS011;57543;45.442;9.212;2023-11-19T08:22:20;19.05;;;13.90;;
70169;SDS011;57543;45.442;9.212;2023-11-19T08:25:25;22.60;;;14.85;;
70169;SDS011;57543;45.442;9.212;2023-11-19T08:28:29;19.52;;;13.60;;
70169;SDS011;57543;45.442;9.212;2023-11-19T08:31:34;18.27;;;13.52;;
70169;SDS011;57543;45.442;9.212;2023-11-19T08:34:38;20.87;;;14.23;;
70169;SDS011;57543;45.442;9.212;2023-11-19T08:37:42;19.63;;;13.93;;
70169;SDS011;57543;45.442;9.212;2023-11-19T08:40:47;21.60;;;14.02;;
70169;SDS011;57543;45.442;9.212;2023-11-19T08:43:50;21.73;;;14.18;;
70169;SDS011;57543;45.442;9.212;2023-11-19T08:46:54;20.77;;;14.10;;
70169;SDS011;57543;45.442;9.212;2023-11-19T08:49:57;20.73;;;14.17;;
70169;SDS011;57543;45.442;9.212;2023-11-19T08:53:01;20.48;;;14.73;;
70169;SDS011;57543;45.442;9.212;2023-11-19T08:56:05;22.10;;;14.82;;
70169;SDS011;57543;45.442;9.212;2023-11-19T08:59:09;21.60;;;14.00;;
70169;SDS011;57543;45.442;9.212;2023-11-19T09:02:13;20.73;;;14.70;;
70169;SDS011;57543;45.442;9.212;2023-11-19T09:05:17;19.80;;;14.27;;
70169;SDS011;57543;45.442;9.212;2023-11-19T09:08:21;23.98;;;16.15;;
70169;SDS011;57543;45.442;9.212;2023-11-19T09:11:24;22.48;;;15.20;;
70169;SDS011;57543;45.442;9.212;2023-11-19T09:14:28;22.05;;;15.70;;
70169;SDS011;57543;45.442;9.212;2023-11-19T09:17:34;23.48;;;16.55;;
70169;SDS011;57543;45.442;9.212;2023-11-19T09:20:38;23.03;;;15.70;;
70169;SDS011;57543;45.442;9.212;2023-11-19T09:23:41;22.10;;;16.13;;
70169;SDS011;57543;45.442;9.212;2023-11-19T09:26:45;24.67;;;15.75;;
70169;SDS011;57543;45.442;9.212;2023-11-19T09:29:52;22.83;;;15.77;;
70169;SDS011;57543;45.442;9.212;2023-11-19T09:33:01;22.98;;;16.83;;
70169;SDS011;57543;45.442;9.212;2023-11-19T09:36:06;22.20;;;15.70;;
70169;SDS011;57543;45.442;9.212;2023-11-19T09:39:10;23.38;;;17.38;;
70169;SDS011;57543;45.442;9.212;2023-11-19T09:42:14;21.65;;;15.88;;
70169;SDS011;57543;45.442;9.212;2023-11-19T09:45:18;24.65;;;16.63;;
70169;SDS011;57543;45.442;9.212;2023-11-19T09:52:17;23.40;;;16.27;;
70169;SDS011;57543;45.442;9.212;2023-11-19T09:55:26;25.70;;;17.17;;
70169;SDS011;57543;45.442;9.212;2023-11-19T09:58:30;26.15;;;16.58;;
70169;SDS011;57543;45.442;9.212;2023-11-19T10:01:37;22.33;;;17.58;;
70169;SDS011;57543;45.442;9.212;2023-11-19T10:04:42;26.27;;;17.50;;
70169;SDS011;57543;45.442;9.212;2023-11-19T10:07:47;26.17;;;17.10;;
70169;SDS011;57543;45.442;9.212;2023-11-19T10:10:53;23.75;;;18.08;;
70169;SDS011;57543;45.442;9.212;2023-11-19T10:13:57;27.15;;;19.05;;
70169;SDS011;57543;45.442;9.212;2023-11-19T10:17:03;28.48;;;19.13;;
70169;SDS011;57543;45.442;9.212;2023-11-19T10:20:10;25.35;;;18.25;;
70169;SDS011;57543;45.442;9.212;2023-11-19T10:23:14;25.93;;;17.73;;
70169;SDS011;57543;45.442;9.212;2023-11-19T10:26:18;22.15;;;16.13;;
70169;SDS011;57543;45.442;9.212;2023-11-19T10:29:23;23.55;;;16.23;;
70169;SDS011;57543;45.442;9.212;2023-11-19T10:32:27;21.00;;;15.25;;
70169;SDS011;57543;45.442;9.212;2023-11-19T10:35:31;20.92;;;14.52;;
70169;SDS011;57543;45.442;9.212;2023-11-19T10:38:35;29.80;;;16.17;;
70169;SDS011;57543;45.442;9.212;2023-11-19T10:41:39;24.15;;;16.20;;
70169;SDS011;57543;45.442;9.212;2023-11-19T10:44:43;23.50;;;15.73;;
70169;SDS011;57543;45.442;9.212;2023-11-19T10:47:47;23.92;;;15.35;;
70169;SDS011;57543;45.442;9.212;2023-11-19T10:50:53;23.63;;;16.95;;
70169;SDS011;57543;45.442;9.212;2023-11-19T10:54:03;26.33;;;16.40;;
70169;SDS011;57543;45.442;9.212;2023-11-19T10:57:11;23.23;;;16.55;;
70169;SDS011;57543;45.442;9.212;2023-11-19T11:00:21;23.80;;;17.50;;
70169;SDS011;57543;45.442;9.212;2023-11-19T11:03:26;23.67;;;16.85;;
70169;SDS011;57543;45.442;9.212;2023-11-19T11:06:35;23.02;;;17.30;;
70169;SDS011;57543;45.442;9.212;2023-11-19T11:09:39;22.83;;;17.87;;
70169;SDS011;57543;45.442;9.212;2023-11-19T11:12:45;23.67;;;17.67;;
70169;SDS011;57543;45.442;9.212;2023-11-19T11:15:50;27.17;;;17.88;;
70169;SDS011;57543;45.442;9.212;2023-11-19T11:18:54;24.98;;;17.42;;
70169;SDS011;57543;45.442;9.212;2023-11-19T11:21:58;23.25;;;16.05;;
70169;SDS011;57543;45.442;9.212;2023-11-19T11:25:16;24.33;;;16.57;;
70169;SDS011;57543;45.442;9.212;2023-11-19T11:28:35;22.58;;;17.30;;
70169;SDS011;57543;45.442;9.212;2023-11-19T11:32:06;23.17;;;16.55;;
70169;SDS011;57543;45.442;9.212;2023-11-19T11:38:58;23.88;;;17.05;;
70169;SDS011;57543;45.442;9.212;2023-11-19T11:45:36;21.13;;;15.88;;
70169;SDS011;57543;45.442;9.212;2023-11-19T11:48:43;21.42;;;16.20;;
70169;SDS011;57543;45.442;9.212;2023-11-19T11:51:59;23.45;;;17.05;;
70169;SDS011;57543;45.442;9.212;2023-11-19T11:55:06;23.13;;;16.85;;
70169;SDS011;57543;45.442;9.212;2023-11-19T11:58:13;27.90;;;18.13;;
70169;SDS011;57543;45.442;9.212;2023-11-19T12:01:17;24.30;;;17.83;;
70169;SDS011;57543;45.442;9.212;2023-11-19T12:04:26;23.80;;;17.05;;
70169;SDS011;57543;45.442;9.212;2023-11-19T12:07:30;27.45;;;19.02;;
70169;SDS011;57543;45.442;9.212;2023-11-19T12:10:44;24.58;;;17.40;;
70169;SDS011;57543;45.442;9.212;2023-11-19T12:13:53;24.77;;;18.17;;
70169;SDS011;57543;45.442;9.212;2023-11-19T12:20:36;25.05;;;17.92;;
70169;SDS011;57543;45.442;9.212;2023-11-19T12:23:45;25.10;;;17.85;;
70169;SDS011;57543;45.442;9.212;2023-11-19T12:26:51;23.95;;;17.65;;
70169;SDS011;57543;45.442;9.212;2023-11-19T12:29:57;24.53;;;17.90;;
70169;SDS011;57543;45.442;9.212;2023-11-19T12:33:07;24.40;;;17.50;;
70169;SDS011;57543;45.442;9.212;2023-11-19T12:36:11;26.30;;;17.15;;
70169;SDS011;57543;45.442;9.212;2023-11-19T12:39:14;23.88;;;16.95;;
70169;SDS011;57543;45.442;9.212;2023-11-19T12:42:20;24.38;;;17.00;;
70169;SDS011;57543;45.442;9.212;2023-11-19T12:45:24;24.13;;;16.47;;
70169;SDS011;57543;45.442;9.212;2023-11-19T12:48:31;23.27;;;16.88;;
70169;SDS011;57543;45.442;9.212;2023-11-19T12:51:37;25.67;;;16.80;;
70169;SDS011;57543;45.442;9.212;2023-11-19T12:54:41;22.65;;;16.80;;
70169;SDS011;57543;45.442;9.212;2023-11-19T12:57:48;23.42;;;16.40;;
70169;SDS011;57543;45.442;9.212;2023-11-19T13:00:51;24.80;;;16.10;;
70169;SDS011;57543;45.442;9.212;2023-11-19T13:04:15;22.90;;;17.67;;
70169;SDS011;57543;45.442;9.212;2023-11-19T13:07:22;22.92;;;16.63;;
70169;SDS011;57543;45.442;9.212;2023-11-19T13:10:26;24.88;;;16.08;;
70169;SDS011;57543;45.442;9.212;2023-11-19T13:13:55;23.98;;;15.57;;
70169;SDS011;57543;45.442;9.212;2023-11-19T13:17:00;23.07;;;15.50;;
70169;SDS011;57543;45.442;9.212;2023-11-19T13:20:04;25.65;;;17.48;;
70169;SDS011;57543;45.442;9.212;2023-11-19T13:23:09;23.27;;;16.70;;
70169;SDS011;57543;45.442;9.212;2023-11-19T13:26:16;23.98;;;16.95;;
70169;SDS011;57543;45.442;9.212;2023-11-19T13:29:20;25.52;;;17.92;;
70169;SDS011;57543;45.442;9.212;2023-11-19T13:32:23;22.23;;;15.43;;
70169;SDS011;57543;45.442;9.212;2023-11-19T13:35:26;25.20;;;17.85;;
70169;SDS011;57543;45.442;9.212;2023-11-19T13:38:31;26.73;;;16.23;;
70169;SDS011;57543;45.442;9.212;2023-11-19T13:41:36;24.08;;;15.93;;
70169;SDS011;57543;45.442;9.212;2023-11-19T13:44:40;20.10;;;14.95;;
70169;SDS011;57543;45.442;9.212;2023-11-19T13:47:44;21.40;;;16.20;;
70169;SDS011;57543;45.442;9.212;2023-11-19T13:50:48;21.48;;;15.27;;
70169;SDS011;57543;45.442;9.212;2023-11-19T13:53:52;21.13;;;15.10;;
70169;SDS011;57543;45.442;9.212;2023-11-19T13:56:56;22.27;;;15.82;;
70169;SDS011;57543;45.442;9.212;2023-11-19T14:00:07;23.50;;;17.48;;
70169;SDS011;57543;45.442;9.212;2023-11-19T14:03:30;24.13;;;16.27;;
70169;SDS011;57543;45.442;9.212;2023-11-19T14:06:37;22.90;;;16.02;;
70169;SDS011;57543;45.442;9.212;2023-11-19T14:09:43;21.60;;;15.25;;
70169;SDS011;57543;45.442;9.212;2023-11-19T14:12:47;21.48;;;15.73;;
70169;SDS011;57543;45.442;9.212;2023-11-19T14:15:56;25.40;;;17.48;;
70169;SDS011;57543;45.442;9.212;2023-11-19T14:19:00;23.67;;;17.17;;
70169;SDS011;57543;45.442;9.212;2023-11-19T14:22:06;22.52;;;15.77;;
70169;SDS011;57543;45.442;9.212;2023-11-19T14:25:10;26.38;;;18.20;;
70169;SDS011;57543;45.442;9.212;2023-11-19T14:28:14;24.92;;;15.95;;
70169;SDS011;57543;45.442;9.212;2023-11-19T14:31:18;24.25;;;17.65;;
70169;SDS011;57543;45.442;9.212;2023-11-19T14:34:21;26.80;;;17.77;;
70169;SDS011;57543;45.442;9.212;2023-11-19T14:37:25;21.70;;;16.23;;
70169;SDS011;57543;45.442;9.212;2023-11-19T14:40:28;21.75;;;16.15;;
70169;SDS011;57543;45.442;9.212;2023-11-19T14:43:33;23.58;;;15.68;;
70169;SDS011;57543;45.442;9.212;2023-11-19T14:46:36;23.30;;;17.13;;
70169;SDS011;57543;45.442;9.212;2023-11-19T14:49:40;22.53;;;15.70;;
70169;SDS011;57543;45.442;9.212;2023-11-19T14:52:44;23.20;;;16.80;;
70169;SDS011;57543;45.442;9.212;2023-11-19T14:55:48;23.90;;;17.70;;
70169;SDS011;57543;45.442;9.212;2023-11-19T14:58:51;23.25;;;17.08;;
70169;SDS011;57543;45.442;9.212;2023-11-19T15:01:55;23.27;;;16.05;;
70169;SDS011;57543;45.442;9.212;2023-11-19T15:04:59;20.87;;;15.63;;
70169;SDS011;57543;45.442;9.212;2023-11-19T15:08:03;21.95;;;15.90;;
70169;SDS011;57543;45.442;9.212;2023-11-19T15:11:07;22.70;;;17.08;;
70169;SDS011;57543;45.442;9.212;2023-11-19T15:14:13;25.90;;;17.05;;
70169;SDS011;57543;45.442;9.212;2023-11-19T15:17:22;24.88;;;16.55;;
70169;SDS011;57543;45.442;9.212;2023-11-19T15:20:25;22.93;;;16.27;;
70169;SDS011;57543;45.442;9.212;2023-11-19T15:23:32;22.92;;;16.23;;
70169;SDS011;57543;45.442;9.212;2023-11-19T15:26:36;22.88;;;15.13;;
70169;SDS011;57543;45.442;9.212;2023-11-19T15:29:40;22.83;;;16.58;;
70169;SDS011;57543;45.442;9.212;2023-11-19T15:32:53;20.90;;;15.55;;
70169;SDS011;57543;45.442;9.212;2023-11-19T15:36:01;21.97;;;15.73;;
70169;SDS011;57543;45.442;9.212;2023-11-19T15:39:06;21.75;;;15.15;;
70169;SDS011;57543;45.442;9.212;2023-11-19T15:42:10;22.33;;;15.98;;
70169;SDS011;57543;45.442;9.212;2023-11-19T15:45:15;24.70;;;16.95;;
70169;SDS011;57543;45.442;9.212;2023-11-19T15:48:19;22.77;;;16.50;;
70169;SDS011;57543;45.442;9.212;2023-11-19T15:51:22;24.37;;;17.23;;
70169;SDS011;57543;45.442;9.212;2023-11-19T15:54:26;24.25;;;16.77;;
70169;SDS011;57543;45.442;9.212;2023-11-19T15:57:30;21.67;;;16.50;;
70169;SDS011;57543;45.442;9.212;2023-11-19T16:00:33;24.85;;;17.55;;
70169;SDS011;57543;45.442;9.212;2023-11-19T16:03:37;24.08;;;17.13;;
70169;SDS011;57543;45.442;9.212;2023-11-19T16:06:40;27.57;;;16.60;;
70169;SDS011;57543;45.442;9.212;2023-11-19T16:09:44;24.25;;;16.88;;
70169;SDS011;57543;45.442;9.212;2023-11-19T16:12:48;26.38;;;17.58;;
70169;SDS011;57543;45.442;9.212;2023-11-19T16:15:52;24.85;;;16.42;;
70169;SDS011;57543;45.442;9.212;2023-11-19T16:18:56;25.15;;;16.08;;
70169;SDS011;57543;45.442;9.212;2023-11-19T16:22:00;24.23;;;16.00;;
70169;SDS011;57543;45.442;9.212;2023-11-19T16:25:13;25.02;;;18.00;;
70169;SDS011;57543;45.442;9.212;2023-11-19T16:28:18;25.75;;;17.52;;
70169;SDS011;57543;45.442;9.212;2023-11-19T16:31:25;25.50;;;17.38;;
70169;SDS011;57543;45.442;9.212;2023-11-19T16:34:31;25.63;;;17.95;;
70169;SDS011;57543;45.442;9.212;2023-11-19T16:37:37;25.47;;;17.70;;
70169;SDS011;57543;45.442;9.212;2023-11-19T16:40:42;23.98;;;17.63;;
70169;SDS011;57543;45.442;9.212;2023-11-19T16:43:46;26.08;;;17.48;;
70169;SDS011;57543;45.442;9.212;2023-11-19T16:46:54;27.60;;;17.08;;
70169;SDS011;57543;45.442;9.212;2023-11-19T16:50:16;26.30;;;17.65;;
70169;SDS011;57543;45.442;9.212;2023-11-19T16:53:19;27.90;;;18.27;;
70169;SDS011;57543;45.442;9.212;2023-11-19T16:56:28;27.08;;;18.63;;
70169;SDS011;57543;45.442;9.212;2023-11-19T16:59:36;24.98;;;17.98;;
70169;SDS011;57543;45.442;9.212;2023-11-19T17:02:50;25.42;;;18.05;;
70169;SDS011;57543;45.442;9.212;2023-11-19T17:05:54;26.17;;;17.75;;
70169;SDS011;57543;45.442;9.212;2023-11-19T17:08:58;25.23;;;16.83;;
70169;SDS011;57543;45.442;9.212;2023-11-19T17:12:01;26.48;;;18.15;;
70169;SDS011;57543;45.442;9.212;2023-11-19T17:15:07;25.98;;;18.33;;
70169;SDS011;57543;45.442;9.212;2023-11-19T17:18:13;26.52;;;18.20;;
70169;SDS011;57543;45.442;9.212;2023-11-19T17:21:19;25.05;;;17.67;;
70169;SDS011;57543;45.442;9.212;2023-11-19T17:24:22;24.57;;;17.87;;
70169;SDS011;57543;45.442;9.212;2023-11-19T17:27:25;25.52;;;17.70;;
70169;SDS011;57543;45.442;9.212;2023-11-19T17:30:31;25.27;;;17.30;;
70169;SDS011;57543;45.442;9.212;2023-11-19T17:33:35;25.60;;;17.77;;
70169;SDS011;57543;45.442;9.212;2023-11-19T17:36:38;25.27;;;18.20;;
70169;SDS011;57543;45.442;9.212;2023-11-19T17:39:42;27.23;;;17.50;;
70169;SDS011;57543;45.442;9.212;2023-11-19T17:42:45;26.73;;;17.67;;
70169;SDS011;57543;45.442;9.212;2023-11-19T17:45:49;27.58;;;17.35;;
70169;SDS011;57543;45.442;9.212;2023-11-19T17:48:52;25.52;;;18.30;;
70169;SDS011;57543;45.442;9.212;2023-11-19T17:51:56;27.90;;;18.10;;
70169;SDS011;57543;45.442;9.212;2023-11-19T17:55:01;25.97;;;18.27;;
70169;SDS011;57543;45.442;9.212;2023-11-19T17:58:09;25.00;;;17.38;;
70169;SDS011;57543;45.442;9.212;2023-11-19T18:01:16;27.60;;;18.77;;
70169;SDS011;57543;45.442;9.212;2023-11-19T18:04:19;30.50;;;18.92;;
70169;SDS011;57543;45.442;9.212;2023-11-19T18:07:22;27.40;;;18.38;;
70169;SDS011;57543;45.442;9.212;2023-11-19T18:10:26;33.03;;;18.13;;
70169;SDS011;57543;45.442;9.212;2023-11-19T18:13:31;26.50;;;18.15;;
70169;SDS011;57543;45.442;9.212;2023-11-19T18:16:37;26.95;;;18.38;;
70169;SDS011;57543;45.442;9.212;2023-11-19T18:19:42;26.77;;;18.60;;
70169;SDS011;57543;45.442;9.212;2023-11-19T18:22:46;28.40;;;19.17;;